Buskirk, New York
Current Conditions -  °F | °C
As of 12:54 AM on Monday 26 Jan 2015 (Local Time) from KDDH Reporting Station
Clear Clear  
Wind Chill: -14°   Ceiling: Unl
Heat Index: -14°   Visibility: 10mi
Dew Point: -18°   Wind: 3mph
Humidity: 73%   Direction: 220°SW
Pressure: 30.04"   Gusts: NA
Location:  42.95°N, 73.43°W
Report Text: KDDH 260554Z AUTO 22003KT 10SM CLR M14/M18 A3004 RMK AO2 SLP185 T11441183 11083 21144 51020
Loading
Personal Weather Stations






























Interactive Weather Map New forecast layout! Learn more

10-Day Weather Forecast

Advertisements
Track Severe Weather on mobile